Time;durP1;ratioP1;P1;durP2;ratioP2;P2;SDS_P1;SDS_P2;PMS_P1;PMS_P2;Temp;Humidity;BMP_temperature;BMP_pressure;BME280_temperature;BME280_humidity;BME280_pressure;Samples;Min_cycle;Max_cycle;Signal;HPM_P1;HPM_P2
2023/04/24 00:01:28;;;;;;;5.68;4.03;;;11.20;99.90;;;;;;4999844;28;20049;-75
2023/04/24 00:03:54;;;;;;;8.23;4.60;;;11.10;99.90;;;;;;5000249;28;20072;-75
2023/04/24 00:06:20;;;;;;;10.25;4.50;;;11.10;99.90;;;;;;4999503;28;20030;-75
2023/04/24 00:08:45;;;;;;;16.65;5.10;;;11.10;99.90;;;;;;5017366;28;20026;-75
2023/04/24 00:11:11;;;;;;;12.25;4.97;;;11.10;99.90;;;;;;5017384;28;20038;-75
2023/04/24 00:13:37;;;;;;;8.52;4.85;;;11.10;99.90;;;;;;5017084;28;20072;-75
2023/04/24 00:16:03;;;;;;;11.80;4.43;;;11.10;99.90;;;;;;4999249;28;20030;-75
2023/04/24 00:18:29;;;;;;;7.07;4.30;;;11.10;99.90;;;;;;5016683;28;20461;-75
2023/04/24 00:20:54;;;;;;;5.53;4.28;;;11.00;99.90;;;;;;4999064;28;20117;-75
2023/04/24 00:23:20;;;;;;;5.18;3.88;;;11.00;99.90;;;;;;5016822;28;20018;-75
2023/04/24 00:25:46;;;;;;;10.50;5.13;;;10.90;99.90;;;;;;5016730;28;20026;-75
2023/04/24 00:28:11;;;;;;;6.32;4.70;;;10.90;99.90;;;;;;5016766;28;20397;-75
2023/04/24 00:30:37;;;;;;;9.43;4.45;;;10.90;99.90;;;;;;5016739;28;20022;-75
2023/04/24 00:33:03;;;;;;;8.35;5.03;;;10.90;99.90;;;;;;5017101;28;20402;-75
2023/04/24 00:35:28;;;;;;;7.18;4.28;;;10.80;99.90;;;;;;5016682;28;20061;-75
2023/04/24 00:37:54;;;;;;;6.32;5.07;;;10.80;99.90;;;;;;5016360;28;20038;-75
2023/04/24 00:40:20;;;;;;;5.47;4.45;;;10.80;99.90;;;;;;4998478;28;20026;-75
2023/04/24 00:42:45;;;;;;;5.22;4.72;;;10.70;99.90;;;;;;4998961;28;20060;-75
2023/04/24 00:45:12;;;;;;;5.93;4.40;;;10.60;99.90;;;;;;4998678;28;20499;-75
2023/04/24 00:47:38;;;;;;;5.93;4.90;;;10.60;99.90;;;;;;4998772;28;20466;-75
2023/04/24 00:50:05;;;;;;;8.75;5.43;;;10.60;99.90;;;;;;4999326;28;20030;-75
2023/04/24 00:52:32;;;;;;;9.00;5.20;;;10.50;99.90;;;;;;5016407;28;20026;-75
2023/04/24 00:54:58;;;;;;;8.07;4.90;;;10.50;99.90;;;;;;5016273;28;20049;-75
2023/04/24 00:57:25;;;;;;;12.63;5.32;;;10.50;99.90;;;;;;4998559;28;20100;-75
2023/04/24 00:59:52;;;;;;;7.63;5.18;;;10.40;99.90;;;;;;4998831;28;20042;-75
2023/04/24 01:02:19;;;;;;;6.53;5.13;;;10.40;99.90;;;;;;4999337;28;20037;-75
2023/04/24 01:04:45;;;;;;;5.97;5.38;;;10.30;99.90;;;;;;5016910;28;20022;-75
2023/04/24 01:07:11;;;;;;;6.53;5.22;;;10.30;99.90;;;;;;4999143;28;20485;-75
2023/04/24 01:09:47;;;;;;;9.90;5.22;;;10.20;99.90;;;;;;4999834;28;20030;-75
2023/04/24 01:12:12;;;;;;;8.75;4.72;;;10.20;99.90;;;;;;4999512;28;20037;-75
2023/04/24 01:14:38;;;;;;;11.65;5.35;;;10.20;99.90;;;;;;4999476;28;20385;-75
2023/04/24 01:17:04;;;;;;;6.53;4.97;;;10.10;99.90;;;;;;5000200;28;20033;-75
2023/04/24 01:19:30;;;;;;;11.32;5.82;;;10.10;99.90;;;;;;4999443;28;20030;-75
2023/04/24 01:21:58;;;;;;;13.23;5.72;;;10.00;99.90;;;;;;5017858;28;20030;-75
2023/04/24 01:24:24;;;;;;;7.97;5.10;;;10.00;99.90;;;;;;5000097;28;20030;-75
2023/04/24 01:26:50;;;;;;;12.02;5.93;;;10.00;99.90;;;;;;5000995;28;20416;-75
2023/04/24 01:29:16;;;;;;;9.23;5.43;;;10.00;99.90;;;;;;5020198;28;20030;-74
2023/04/24 01:31:42;;;;;;;8.05;5.22;;;10.00;99.90;;;;;;5020237;28;20065;-75
2023/04/24 01:34:08;;;;;;;7.80;5.03;;;10.10;99.90;;;;;;5002375;28;20050;-75
2023/04/24 01:36:34;;;;;;;9.10;6.05;;;10.10;99.90;;;;;;5020537;28;20033;-74
2023/04/24 01:39:00;;;;;;;6.88;4.82;;;10.10;99.90;;;;;;5020036;28;20026;-75
2023/04/24 01:41:26;;;;;;;7.05;4.88;;;10.10;99.90;;;;;;5002548;28;20048;-75
2023/04/24 01:43:52;;;;;;;5.82;5.28;;;10.20;99.90;;;;;;5002557;28;20034;-74
2023/04/24 01:46:18;;;;;;;6.95;4.85;;;10.20;99.90;;;;;;5001272;28;20050;-75
2023/04/24 01:48:45;;;;;;;6.68;4.57;;;10.30;99.90;;;;;;5019169;28;20036;-75
2023/04/24 01:51:11;;;;;;;8.85;5.05;;;10.20;99.90;;;;;;5019159;28;20476;-74
2023/04/24 01:53:37;;;;;;;7.35;4.80;;;10.30;99.90;;;;;;5001355;28;20026;-75
2023/04/24 01:56:02;;;;;;;7.13;5.05;;;10.30;99.90;;;;;;5019390;28;20112;-75
2023/04/24 01:58:28;;;;;;;7.20;4.68;;;10.30;99.90;;;;;;5000110;28;20034;-75
2023/04/24 02:00:58;;;;;;;8.90;4.90;;;10.30;99.90;;;;;;5017437;28;20030;-75
2023/04/24 02:03:24;;;;;;;10.18;5.55;;;10.30;99.90;;;;;;5017062;28;20026;-75
2023/04/24 02:05:50;;;;;;;6.53;5.20;;;10.20;99.90;;;;;;5000239;28;20370;-75
2023/04/24 02:08:16;;;;;;;8.82;4.50;;;10.20;99.90;;;;;;5017152;28;20034;-75
2023/04/24 02:10:41;;;;;;;5.85;4.72;;;10.10;99.90;;;;;;4999520;28;20034;-75
2023/04/24 02:13:07;;;;;;;8.45;5.15;;;10.00;99.90;;;;;;5017586;28;20450;-75
2023/04/24 02:15:33;;;;;;;6.60;4.90;;;10.00;99.90;;;;;;5016923;28;20060;-75
2023/04/24 02:17:58;;;;;;;5.82;4.47;;;9.90;99.90;;;;;;5016573;28;20026;-75
2023/04/24 02:20:24;;;;;;;8.90;4.60;;;9.90;99.90;;;;;;4999223;28;20030;-75
2023/04/24 02:22:49;;;;;;;8.52;4.30;;;9.90;99.90;;;;;;5016063;28;20025;-75
2023/04/24 02:25:15;;;;;;;8.70;4.70;;;10.00;99.90;;;;;;4999547;28;20116;-75
2023/04/24 02:27:41;;;;;;;5.78;4.30;;;10.10;99.90;;;;;;5017311;28;20022;-75
2023/04/24 02:30:07;;;;;;;7.07;4.10;;;10.10;99.90;;;;;;5000020;28;20033;-75
2023/04/24 02:32:33;;;;;;;6.13;3.67;;;10.20;99.90;;;;;;5017545;28;20055;-75
2023/04/24 02:34:59;;;;;;;7.05;4.10;;;10.30;99.90;;;;;;5017765;28;20033;-75
2023/04/24 02:37:25;;;;;;;8.73;3.63;;;10.30;99.90;;;;;;5016678;28;20038;-75
2023/04/24 02:39:51;;;;;;;8.57;4.00;;;10.40;99.90;;;;;;5016427;28;20082;-75
2023/04/24 02:42:17;;;;;;;5.63;4.07;;;10.40;99.90;;;;;;5016476;28;20057;-75
2023/04/24 02:44:42;;;;;;;8.70;3.47;;;10.40;99.90;;;;;;5016594;28;20165;-75
2023/04/24 02:47:08;;;;;;;5.10;3.00;;;10.40;99.90;;;;;;5016350;28;20022;-75
2023/04/24 02:49:34;;;;;;;7.80;3.22;;;10.30;99.90;;;;;;5016159;28;20026;-75
2023/04/24 02:52:00;;;;;;;5.53;3.60;;;10.30;99.90;;;;;;5016591;28;20030;-75
2023/04/24 02:54:25;;;;;;;4.32;3.30;;;10.40;99.90;;;;;;5016310;28;20458;-75
2023/04/24 02:56:51;;;;;;;5.45;3.58;;;10.40;99.90;;;;;;5017174;28;20030;-75
2023/04/24 02:59:16;;;;;;;3.78;3.35;;;10.40;99.90;;;;;;5000937;28;20034;-75
2023/04/24 03:01:42;;;;;;;6.50;3.70;;;10.40;99.90;;;;;;5018123;28;20038;-75
2023/04/24 03:04:07;;;;;;;3.83;3.22;;;10.40;99.90;;;;;;5018495;28;20454;-75
2023/04/24 03:06:35;;;;;;;6.18;3.70;;;10.50;99.90;;;;;;5000505;28;20037;-75
2023/04/24 03:09:00;;;;;;;6.32;3.40;;;10.50;99.90;;;;;;5017929;28;20022;-75
2023/04/24 03:11:26;;;;;;;4.72;3.50;;;10.50;99.90;;;;;;5018055;28;20531;-75
2023/04/24 03:13:52;;;;;;;7.10;3.15;;;10.60;99.90;;;;;;5000626;28;20026;-75
2023/04/24 03:16:17;;;;;;;9.18;4.63;;;10.70;99.90;;;;;;5016482;28;20462;-75
2023/04/24 03:18:43;;;;;;;3.45;3.15;;;10.80;99.90;;;;;;5017184;28;20066;-75
2023/04/24 03:21:09;;;;;;;3.75;2.95;;;10.80;99.90;;;;;;4999030;28;20093;-75
2023/04/24 03:23:34;;;;;;;4.13;3.20;;;10.90;99.90;;;;;;5016165;28;20057;-75
2023/04/24 03:26:00;;;;;;;3.42;3.13;;;10.90;99.90;;;;;;4999728;28;20033;-75
2023/04/24 03:28:26;;;;;;;6.82;3.45;;;11.00;99.90;;;;;;5017114;28;20026;-75
2023/04/24 03:30:52;;;;;;;3.90;2.90;;;11.10;99.90;;;;;;5017732;28;20026;-75
2023/04/24 03:33:17;;;;;;;5.85;2.92;;;11.20;99.90;;;;;;5016254;28;20018;-75
2023/04/24 03:35:43;;;;;;;3.97;2.88;;;11.30;99.90;;;;;;5016108;28;20117;-75
2023/04/24 03:38:08;;;;;;;3.60;3.17;;;11.40;99.90;;;;;;5017251;28;20441;-75
2023/04/24 03:40:34;;;;;;;3.75;3.15;;;11.50;99.90;;;;;;4998126;28;20125;-75
2023/04/24 03:43:00;;;;;;;4.40;3.30;;;11.60;99.90;;;;;;5016272;28;20036;-75
2023/04/24 03:45:25;;;;;;;5.15;3.50;;;11.60;99.90;;;;;;4998064;28;20052;-75
2023/04/24 03:47:51;;;;;;;5.53;3.03;;;11.60;99.90;;;;;;5016107;28;20030;-75
2023/04/24 03:50:16;;;;;;;4.38;2.85;;;11.70;99.90;;;;;;4998270;28;20030;-75
2023/04/24 03:52:42;;;;;;;4.63;3.55;;;11.70;99.90;;;;;;5016139;28;20083;-75
2023/04/24 03:55:08;;;;;;;4.22;3.00;;;11.80;99.90;;;;;;4998335;28;20033;-75
2023/04/24 03:57:34;;;;;;;3.20;2.90;;;11.80;99.90;;;;;;5019195;28;20097;-75
2023/04/24 03:59:59;;;;;;;3.08;2.60;;;11.80;99.90;;;;;;5019558;28;20096;-75
2023/04/24 04:02:25;;;;;;;2.83;2.53;;;11.80;99.90;;;;;;5019362;28;20053;-75
2023/04/24 04:04:50;;;;;;;12.10;3.90;;;11.90;99.90;;;;;;5019595;28;20033;-75
2023/04/24 04:07:16;;;;;;;3.35;3.05;;;11.90;99.90;;;;;;5019534;28;20058;-75
2023/04/24 04:09:42;;;;;;;5.18;2.80;;;11.90;99.90;;;;;;5019791;28;20453;-75
2023/04/24 04:12:07;;;;;;;2.65;2.35;;;11.90;99.90;;;;;;5019436;28;20026;-78
2023/04/24 04:14:33;;;;;;;2.85;2.65;;;12.00;99.90;;;;;;5000899;28;20064;-75
2023/04/24 04:16:59;;;;;;;3.10;2.60;;;12.00;99.90;;;;;;5019109;28;20026;-74
2023/04/24 04:19:24;;;;;;;2.80;2.60;;;12.10;99.90;;;;;;5001389;28;20045;-73
2023/04/24 04:21:52;;;;;;;5.28;3.08;;;12.10;99.90;;;;;;5001081;28;20036;-73
2023/04/24 04:24:20;;;;;;;3.40;2.30;;;12.10;99.90;;;;;;5018960;28;20462;-74
2023/04/24 04:26:46;;;;;;;2.83;2.50;;;12.10;99.90;;;;;;5001580;28;20025;-73
2023/04/24 04:29:13;;;;;;;2.65;2.33;;;12.10;99.90;;;;;;5001625;28;20034;-73
2023/04/24 04:31:39;;;;;;;2.70;2.30;;;12.10;99.90;;;;;;5002131;28;20029;-74
2023/04/24 04:34:05;;;;;;;3.92;2.40;;;12.20;99.90;;;;;;5020234;28;20500;-75
2023/04/24 04:36:31;;;;;;;2.58;2.17;;;12.20;99.90;;;;;;5019934;28;20362;-74
2023/04/24 04:38:59;;;;;;;4.88;2.40;;;12.20;99.90;;;;;;5018846;28;20034;-75
2023/04/24 04:41:24;;;;;;;5.20;2.30;;;12.20;99.90;;;;;;5001125;28;20153;-74
2023/04/24 04:43:50;;;;;;;5.47;2.25;;;12.20;99.90;;;;;;4999700;28;20057;-73
2023/04/24 04:46:16;;;;;;;3.35;2.25;;;12.20;99.90;;;;;;5018197;28;20078;-75
2023/04/24 04:48:42;;;;;;;3.03;2.30;;;12.20;99.90;;;;;;5019732;28;20026;-74
2023/04/24 04:51:07;;;;;;;7.30;2.90;;;12.20;99.90;;;;;;5001226;28;20026;-74
2023/04/24 04:53:33;;;;;;;6.18;2.40;;;12.20;99.90;;;;;;5018904;28;20033;-74
2023/04/24 04:55:59;;;;;;;3.50;2.72;;;12.20;99.90;;;;;;5002047;28;20030;-73
2023/04/24 04:58:25;;;;;;;3.10;2.30;;;12.30;99.90;;;;;;5018966;28;20476;-74
2023/04/24 05:00:52;;;;;;;3.42;2.58;;;12.40;99.90;;;;;;5002559;28;20034;-75
2023/04/24 05:03:17;;;;;;;3.55;2.22;;;12.40;99.90;;;;;;5018852;28;20441;-74
2023/04/24 05:05:43;;;;;;;2.85;2.58;;;12.40;99.90;;;;;;5014874;28;20030;-74
2023/04/24 05:08:09;;;;;;;4.22;2.70;;;12.50;99.90;;;;;;5000185;28;20038;-74
2023/04/24 05:10:36;;;;;;;4.60;2.97;;;12.50;99.90;;;;;;5018575;28;20026;-74
2023/04/24 05:13:03;;;;;;;3.35;2.78;;;12.60;99.90;;;;;;5016667;28;20022;-74
2023/04/24 05:15:29;;;;;;;4.97;2.85;;;12.60;99.90;;;;;;4999612;28;20030;-74
2023/04/24 05:17:54;;;;;;;6.20;2.40;;;12.60;99.90;;;;;;4999439;28;20116;-74
2023/04/24 05:20:20;;;;;;;6.15;2.67;;;12.70;99.90;;;;;;4999229;28;20062;-75
2023/04/24 05:22:46;;;;;;;4.00;2.50;;;12.70;99.90;;;;;;5016514;28;20029;-74
2023/04/24 05:25:12;;;;;;;3.50;2.65;;;12.70;99.90;;;;;;4999227;28;20022;-75
2023/04/24 05:27:38;;;;;;;7.38;2.95;;;12.80;99.90;;;;;;4999917;28;20350;-70
2023/04/24 05:30:04;;;;;;;4.10;2.60;;;12.80;99.90;;;;;;5016293;28;20021;-74
2023/04/24 05:32:30;;;;;;;3.00;2.50;;;12.90;99.90;;;;;;4998616;28;20037;-74
2023/04/24 05:34:55;;;;;;;4.22;2.78;;;12.90;99.90;;;;;;5017358;28;20026;-74
2023/04/24 05:37:21;;;;;;;2.78;2.58;;;13.00;99.90;;;;;;5016264;28;20026;-74
2023/04/24 05:39:47;;;;;;;7.63;2.22;;;13.10;99.90;;;;;;5016342;28;20034;-74
2023/04/24 05:42:12;;;;;;;2.30;2.13;;;13.20;99.90;;;;;;5017554;28;20109;-74
2023/04/24 05:44:38;;;;;;;3.60;2.53;;;13.20;99.90;;;;;;5016602;28;20057;-74
2023/04/24 05:47:04;;;;;;;2.50;2.30;;;13.30;99.90;;;;;;4998883;28;20115;-73
2023/04/24 05:49:29;;;;;;;2.08;1.85;;;13.30;99.90;;;;;;5001182;28;20441;-73
2023/04/24 05:51:55;;;;;;;2.08;1.92;;;13.30;99.90;;;;;;5017394;28;20409;-74
2023/04/24 05:54:21;;;;;;;2.15;1.85;;;13.40;99.90;;;;;;5016189;28;20033;-73
2023/04/24 05:56:47;;;;;;;4.70;2.03;;;13.40;99.90;;;;;;5000547;28;20026;-75
2023/04/24 05:59:12;;;;;;;2.50;2.17;;;13.50;99.90;;;;;;5000653;28;20087;-73
2023/04/24 06:01:38;;;;;;;2.95;1.98;;;13.50;99.90;;;;;;5018890;28;20516;-74
2023/04/24 06:04:04;;;;;;;3.60;2.40;;;13.50;99.90;;;;;;5003167;28;20051;-74
2023/04/24 06:06:30;;;;;;;2.35;2.15;;;13.60;99.90;;;;;;5003231;28;20386;-74
2023/04/24 06:08:56;;;;;;;4.28;2.13;;;13.60;99.90;;;;;;5000485;28;20026;-73
2023/04/24 06:11:22;;;;;;;2.00;1.80;;;13.70;99.90;;;;;;5017751;28;20117;-72
2023/04/24 06:13:48;;;;;;;3.67;2.25;;;13.70;99.90;;;;;;5017728;28;20115;-73
2023/04/24 06:16:14;;;;;;;3.33;2.15;;;13.80;99.90;;;;;;5016526;28;20029;-74
2023/04/24 06:18:39;;;;;;;4.30;2.10;;;13.80;99.90;;;;;;4999064;28;20120;-73
2023/04/24 06:21:06;;;;;;;2.42;1.95;;;13.80;99.90;;;;;;4998205;28;20029;-73
2023/04/24 06:23:32;;;;;;;3.17;1.75;;;13.80;99.90;;;;;;4997572;28;20022;-72
2023/04/24 06:25:59;;;;;;;2.38;2.08;;;13.90;99.90;;;;;;5014442;28;20032;-72
2023/04/24 06:28:25;;;;;;;1.52;1.42;;;14.00;99.90;;;;;;4998352;28;20061;-72
2023/04/24 06:30:50;;;;;;;3.00;1.50;;;14.00;99.90;;;;;;5017719;28;20049;-73
2023/04/24 06:33:16;;;;;;;2.85;1.50;;;14.00;99.90;;;;;;4999489;28;20053;-73
2023/04/24 06:35:42;;;;;;;2.45;1.30;;;14.00;99.90;;;;;;5016004;28;20466;-72
2023/04/24 06:38:08;;;;;;;1.40;1.30;;;14.10;99.90;;;;;;5017196;28;20033;-73
2023/04/24 06:40:33;;;;;;;2.67;1.08;;;14.10;99.90;;;;;;5016200;28;20030;-74
2023/04/24 06:43:02;;;;;;;1.90;1.00;;;14.10;99.90;;;;;;4998277;28;20480;-72
2023/04/24 06:45:28;;;;;;;3.92;1.10;;;14.20;99.90;;;;;;5016563;28;20385;-73
2023/04/24 06:47:54;;;;;;;1.20;1.02;;;14.10;99.90;;;;;;5016063;28;20037;-73
2023/04/24 06:50:20;;;;;;;1.35;0.75;;;14.10;99.90;;;;;;4998465;28;20026;-73
2023/04/24 06:52:45;;;;;;;4.25;1.10;;;14.10;99.90;;;;;;4999082;28;20053;-73
2023/04/24 06:55:11;;;;;;;1.00;0.90;;;14.20;99.90;;;;;;4997848;28;20026;-72
2023/04/24 06:57:37;;;;;;;1.88;1.10;;;14.20;99.90;;;;;;5016009;28;20022;-73
2023/04/24 07:00:06;;;;;;;1.25;1.15;;;14.20;99.90;;;;;;4999152;28;20041;-73
2023/04/24 07:02:32;;;;;;;2.17;1.10;;;14.10;99.90;;;;;;4998697;28;20026;-72
2023/04/24 07:04:57;;;;;;;1.20;1.10;;;14.20;99.90;;;;;;5014791;28;20470;-73
2023/04/24 07:07:23;;;;;;;2.10;1.10;;;14.30;99.90;;;;;;4996869;28;20073;-73
2023/04/24 07:09:50;;;;;;;2.05;1.02;;;14.30;99.90;;;;;;5015119;28;20076;-72
2023/04/24 07:12:16;;;;;;;1.67;1.27;;;14.30;99.90;;;;;;5014712;28;20018;-73
2023/04/24 07:14:42;;;;;;;3.28;1.00;;;14.40;99.90;;;;;;5013545;28;20193;-73
2023/04/24 07:17:08;;;;;;;1.05;1.05;;;14.50;99.90;;;;;;4996148;28;20026;-73
2023/04/24 07:19:37;;;;;;;1.35;1.10;;;14.40;99.90;;;;;;4997782;28;20083;-73
2023/04/24 07:22:03;;;;;;;1.15;0.90;;;14.30;99.90;;;;;;4997856;28;20124;-73
2023/04/24 07:24:29;;;;;;;1.25;0.90;;;14.30;99.90;;;;;;5014290;28;20113;-73
2023/04/24 07:26:55;;;;;;;2.30;1.10;;;14.30;99.90;;;;;;5015168;28;20100;-73
2023/04/24 07:29:21;;;;;;;0.75;0.75;;;14.30;99.90;;;;;;5015782;28;20421;-73
2023/04/24 07:31:46;;;;;;;1.00;0.90;;;14.20;99.90;;;;;;5017654;28;20026;-72
2023/04/24 07:34:12;;;;;;;2.00;1.00;;;14.20;99.90;;;;;;5019642;28;20110;-73
2023/04/24 07:36:38;;;;;;;0.70;0.60;;;14.10;99.90;;;;;;5019916;28;20080;-73
2023/04/24 07:39:04;;;;;;;1.55;1.00;;;14.00;99.90;;;;;;5002575;28;20034;-73
2023/04/24 07:41:30;;;;;;;1.63;1.00;;;13.90;99.90;;;;;;5019498;28;20026;-73
2023/04/24 07:43:56;;;;;;;0.98;0.70;;;13.90;99.90;;;;;;5001703;28;20458;-73
2023/04/24 07:46:23;;;;;;;1.27;1.20;;;13.80;99.90;;;;;;5018926;28;20081;-74
2023/04/24 07:48:48;;;;;;;1.85;1.50;;;13.70;99.90;;;;;;5001025;28;20030;-73
2023/04/24 07:51:15;;;;;;;6.03;1.40;;;13.70;99.90;;;;;;5001419;28;20033;-72
2023/04/24 07:53:41;;;;;;;1.20;1.10;;;13.70;99.90;;;;;;5003009;28;20026;-72
2023/04/24 07:56:07;;;;;;;1.80;1.30;;;13.70;99.90;;;;;;5002772;28;20028;-72
2023/04/24 07:58:33;;;;;;;1.77;1.40;;;13.70;99.90;;;;;;5019396;28;20106;-73
2023/04/24 08:00:58;;;;;;;1.27;1.17;;;13.80;99.90;;;;;;5001855;28;20080;-73
2023/04/24 08:03:24;;;;;;;1.55;1.08;;;13.80;99.90;;;;;;5001872;28;20024;-73
2023/04/24 08:05:50;;;;;;;2.22;0.90;;;13.70;99.90;;;;;;5001063;28;20116;-72
2023/04/24 08:08:16;;;;;;;1.90;1.17;;;13.80;99.90;;;;;;5018772;28;20084;-73
2023/04/24 08:10:43;;;;;;;1.30;1.00;;;13.80;99.90;;;;;;5017672;28;20030;-73
2023/04/24 08:13:08;;;;;;;4.22;0.82;;;13.80;99.90;;;;;;5002782;28;20029;-72
2023/04/24 08:15:35;;;;;;;0.85;0.77;;;13.80;99.90;;;;;;5023219;28;20354;-72
2023/04/24 08:18:00;;;;;;;2.67;1.20;;;13.80;99.90;;;;;;5022282;28;20030;-72
2023/04/24 08:20:26;;;;;;;2.83;0.73;;;13.70;99.90;;;;;;5004501;28;20080;-72
2023/04/24 08:22:52;;;;;;;2.05;0.65;;;13.70;99.90;;;;;;5004793;28;20030;-73
2023/04/24 08:25:19;;;;;;;2.90;0.47;;;13.50;99.90;;;;;;5023475;28;20111;-72
2023/04/24 08:27:44;;;;;;;0.55;0.50;;;13.30;99.90;;;;;;5022552;28;20022;-71
2023/04/24 08:30:11;;;;;;;0.65;0.40;;;13.10;99.90;;;;;;5005798;28;20026;-72
2023/04/24 08:32:37;;;;;;;0.63;0.47;;;13.00;99.90;;;;;;5023158;28;20037;-72
2023/04/24 08:35:03;;;;;;;0.43;0.43;;;12.90;99.90;;;;;;5003967;28;20026;-72
2023/04/24 08:37:29;;;;;;;4.78;0.40;;;12.80;99.90;;;;;;5003659;28;20026;-71
2023/04/24 08:39:54;;;;;;;1.25;0.60;;;12.80;99.90;;;;;;5023084;28;20087;-73
2023/04/24 08:42:20;;;;;;;0.25;0.25;;;12.70;99.90;;;;;;5022011;28;20397;-73
2023/04/24 08:44:48;;;;;;;0.30;0.25;;;12.50;99.90;;;;;;5003854;28;20045;-72
2023/04/24 08:47:15;;;;;;;0.38;0.38;;;12.40;99.90;;;;;;5020269;28;20022;-72
2023/04/24 08:49:41;;;;;;;0.38;0.38;;;12.40;99.90;;;;;;5019917;28;20034;-73
2023/04/24 08:52:07;;;;;;;1.38;0.20;;;12.30;99.90;;;;;;5002628;28;20036;-72
2023/04/24 08:54:36;;;;;;;1.25;0.30;;;12.30;99.90;;;;;;5003229;28;20030;-73
2023/04/24 08:57:03;;;;;;;0.40;0.20;;;12.30;99.90;;;;;;5021771;28;20370;-72
2023/04/24 08:59:30;;;;;;;1.65;0.20;;;12.40;99.90;;;;;;5002753;28;20486;-72
2023/04/24 09:01:57;;;;;;;3.00;0.10;;;12.40;99.90;;;;;;5019253;28;20030;-72
2023/04/24 09:04:24;;;;;;;0.20;0.20;;;12.40;99.90;;;;;;5001893;28;20034;-68
2023/04/24 09:06:59;;;;;;;0.32;0.20;;;12.40;99.90;;;;;;4999250;28;20084;-59
2023/04/24 09:09:26;;;;;;;1.02;0.10;;;12.50;99.90;;;;;;5016291;28;20034;-59
2023/04/24 09:11:55;;;;;;;0.15;0.15;;;12.70;99.90;;;;;;5018105;28;20045;-73
2023/04/24 09:14:20;;;;;;;;;;;12.70;99.90;;;;;;5020189;28;20057;-72
2023/04/24 09:16:46;;;;;;;0.65;0.20;;;12.50;99.90;;;;;;5002141;28;20308;-73
2023/04/24 09:19:12;;;;;;;0.52;0.20;;;12.50;99.90;;;;;;5020032;28;20083;-73
2023/04/24 09:21:38;;;;;;;2.50;0.30;;;12.50;99.90;;;;;;5019580;28;20457;-62
2023/04/24 09:24:07;;;;;;;4.18;0.30;;;12.50;99.90;;;;;;5015440;28;20029;-62
2023/04/24 09:26:35;;;;;;;1.58;0.20;;;12.70;99.90;;;;;;5015331;28;20040;-62
2023/04/24 09:29:01;;;;;;;2.60;0.53;;;12.70;99.90;;;;;;5015778;28;20040;-61
2023/04/24 09:31:29;;;;;;;0.20;0.20;;;12.80;99.90;;;;;;5015184;28;20026;-61
2023/04/24 09:34:08;;;;;;;0.85;0.30;;;12.80;99.90;;;;;;4997576;28;20083;-61
2023/04/24 09:36:36;;;;;;;0.73;0.15;;;12.80;99.90;;;;;;4997755;28;20433;-62
2023/04/24 09:39:05;;;;;;;0.20;0.15;;;12.90;99.90;;;;;;4997410;28;20485;-62
2023/04/24 09:41:32;;;;;;;0.30;0.30;;;12.80;99.90;;;;;;4997518;28;20128;-61
2023/04/24 09:44:12;;;;;;;0.47;0.32;;;12.80;99.90;;;;;;5015184;28;20466;-62
2023/04/24 09:46:37;;;;;;;1.27;0.17;;;12.80;99.90;;;;;;4997361;28;20049;-61
2023/04/24 09:49:25;;;;;;;3.40;0.30;;;12.80;99.90;;;;;;5014852;28;20038;-61
2023/04/24 09:51:51;;;;;;;0.20;0.10;;;12.80;99.90;;;;;;5014943;28;20034;-62
2023/04/24 09:54:19;;;;;;;1.15;0.10;;;12.80;99.90;;;;;;5014435;28;20101;-61
2023/04/24 09:56:47;;;;;;;0.45;0.28;;;12.90;99.90;;;;;;5014577;28;20026;-61
2023/04/24 09:59:15;;;;;;;0.95;0.17;;;12.90;99.90;;;;;;5014834;28;20073;-61
2023/04/24 10:01:42;;;;;;;3.00;0.22;;;12.90;99.90;;;;;;5014953;28;20048;-61
2023/04/24 10:04:19;;;;;;;3.33;0.30;;;13.00;99.90;;;;;;5016587;28;20022;-72
2023/04/24 10:06:46;;;;;;;1.48;0.30;;;12.90;99.90;;;;;;5017084;28;20026;-72
2023/04/24 10:09:13;;;;;;;0.22;0.10;;;12.80;99.90;;;;;;5017280;28;20036;-72
2023/04/24 10:11:44;;;;;;;0.10;0.10;;;12.70;99.90;;;;;;5017220;28;20026;-73
2023/04/24 10:14:13;;;;;;;0.40;0.30;;;12.70;99.90;;;;;;5018480;28;20034;-72
2023/04/24 10:16:40;;;;;;;0.20;0.20;;;12.60;99.90;;;;;;4998375;28;20026;-73
2023/04/24 10:19:06;;;;;;;1.80;0.30;;;12.50;99.90;;;;;;5016780;28;20531;-73
2023/04/24 10:21:34;;;;;;;0.70;0.35;;;12.40;99.90;;;;;;5017943;28;20025;-73
2023/04/24 10:24:03;;;;;;;0.43;0.40;;;12.40;99.90;;;;;;5001871;28;20523;-73
2023/04/24 10:26:29;;;;;;;2.15;0.20;;;12.40;99.90;;;;;;5016187;28;20026;-73
2023/04/24 10:28:58;;;;;;;1.15;0.30;;;12.40;99.90;;;;;;5015547;28;20033;-73
2023/04/24 10:31:23;;;;;;;0.93;0.35;;;12.40;99.90;;;;;;5015552;28;20125;-73
2023/04/24 10:33:51;;;;;;;14.68;2.05;;;12.40;99.90;;;;;;5016514;28;20454;-72
2023/04/24 10:36:17;;;;;;;0.50;0.32;;;12.30;99.90;;;;;;5016254;28;20030;-73
2023/04/24 10:38:46;;;;;;;3.58;0.45;;;12.40;99.90;;;;;;4997436;28;20044;-73
2023/04/24 10:41:19;;;;;;;0.20;0.20;;;12.40;99.90;;;;;;5006142;28;20042;-73
2023/04/24 10:43:45;;;;;;;0.57;0.45;;;12.30;99.90;;;;;;5006660;28;20033;-74
2023/04/24 10:46:19;;;;;;;2.08;0.30;;;12.30;99.90;;;;;;4988901;28;20448;-74
2023/04/24 10:48:54;;;;;;;1.35;0.30;;;12.40;99.90;;;;;;4990483;28;20042;-75
2023/04/24 10:51:23;;;;;;;1.65;0.50;;;12.40;99.90;;;;;;4991000;28;20033;-74
2023/04/24 10:53:50;;;;;;;3.22;0.40;;;12.30;99.90;;;;;;5007664;28;20036;-74
2023/04/24 10:56:16;;;;;;;1.52;0.38;;;12.20;99.90;;;;;;5005528;28;20065;-74
2023/04/24 10:58:44;;;;;;;0.60;0.40;;;12.20;99.90;;;;;;5006047;28;20052;-74
2023/04/24 11:01:30;;;;;;;1.60;0.50;;;12.10;99.90;;;;;;5007176;28;20119;-74
2023/04/24 11:04:02;;;;;;;0.50;0.30;;;12.10;99.90;;;;;;4987825;28;20480;-74
2023/04/24 11:06:37;;;;;;;1.95;0.50;;;12.10;99.90;;;;;;5006147;28;20042;-74
2023/04/24 11:09:03;;;;;;;0.88;0.20;;;12.20;99.90;;;;;;4992349;28;21326;-73
2023/04/24 11:11:30;;;;;;;0.82;0.38;;;12.20;99.90;;;;;;4995355;28;20374;-74
2023/04/24 11:13:55;;;;;;;1.20;0.40;;;12.30;99.90;;;;;;5014026;28;20040;-74
2023/04/24 11:16:29;;;;;;;2.15;0.55;;;12.20;99.90;;;;;;4997018;28;20102;-75
2023/04/24 11:19:05;;;;;;;1.50;0.40;;;12.20;99.90;;;;;;5013264;28;20037;-74
2023/04/24 11:22:01;;;;;;;1.33;0.40;;;12.10;99.90;;;;;;4996881;28;20436;-74
2023/04/24 11:24:26;;;;;;;0.60;0.50;;;12.10;99.90;;;;;;5010362;28;20044;-75
2023/04/24 11:26:55;;;;;;;0.88;0.30;;;12.10;99.90;;;;;;5012267;28;20026;-74
2023/04/24 11:29:21;;;;;;;2.33;1.27;;;12.00;99.90;;;;;;5011374;28;20038;-75
2023/04/24 11:31:51;;;;;;;1.00;0.57;;;11.90;99.90;;;;;;4994271;28;20034;-75
2023/04/24 11:34:18;;;;;;;3.53;0.90;;;11.90;99.90;;;;;;4991636;28;20053;-77
2023/04/24 11:36:45;;;;;;;2.05;1.10;;;11.90;99.90;;;;;;4991680;28;20038;-76
2023/04/24 11:39:11;;;;;;;2.28;1.05;;;12.00;99.90;;;;;;4998693;28;20030;-76
2023/04/24 11:41:37;;;;;;;1.00;0.90;;;12.00;99.90;;;;;;5007069;28;20026;-76
2023/04/24 11:44:05;;;;;;;1.02;0.88;;;12.00;99.90;;;;;;5024849;28;20049;-76
2023/04/24 11:46:31;;;;;;;2.53;0.80;;;12.00;99.90;;;;;;5007063;28;20038;-76
2023/04/24 11:48:58;;;;;;;4.72;1.27;;;12.00;99.90;;;;;;5024617;28;20072;-75
2023/04/24 11:51:27;;;;;;;2.95;1.23;;;12.00;99.90;;;;;;5022805;28;20037;-75
2023/04/24 11:53:55;;;;;;;4.03;1.70;;;12.20;99.90;;;;;;5020050;28;20111;-75
2023/04/24 11:56:24;;;;;;;3.72;1.70;;;12.30;99.90;;;;;;5001978;28;20025;-75
2023/04/24 11:58:53;;;;;;;2.80;1.10;;;12.40;99.90;;;;;;5019534;28;20029;-75
2023/04/24 12:01:19;;;;;;;2.47;0.63;;;12.60;99.90;;;;;;5020212;28;20030;-76
2023/04/24 12:03:50;;;;;;;3.05;0.73;;;12.70;99.90;;;;;;5019028;28;20468;-75
2023/04/24 12:06:16;;;;;;;1.35;0.73;;;12.90;99.90;;;;;;5020084;28;20026;-76
2023/04/24 12:08:46;;;;;;;0.50;0.50;;;13.10;99.90;;;;;;5001609;28;20053;-75
2023/04/24 12:11:15;;;;;;;1.30;0.60;;;13.30;99.90;;;;;;5001977;28;20026;-75
2023/04/24 12:13:41;;;;;;;0.60;0.40;;;13.40;99.90;;;;;;5000690;28;20037;-75
2023/04/24 12:16:07;;;;;;;0.75;0.38;;;13.70;99.90;;;;;;5016670;28;20093;-75
2023/04/24 12:18:33;;;;;;;3.53;0.38;;;13.90;99.90;;;;;;5015955;28;20030;-75
2023/04/24 12:21:21;;;;;;;0.57;0.40;;;14.10;99.90;;;;;;4999153;28;20445;-76
2023/04/24 12:23:47;;;;;;;1.05;0.50;;;14.10;99.90;;;;;;4998885;28;20033;-75
2023/04/24 12:26:18;;;;;;;4.07;0.52;;;14.20;99.90;;;;;;4998878;28;20038;-75
2023/04/24 12:28:48;;;;;;;1.08;0.75;;;14.20;99.90;;;;;;5016642;28;20026;-75
2023/04/24 12:31:13;;;;;;;3.10;0.55;;;14.20;99.90;;;;;;5016374;28;20069;-75
2023/04/24 12:33:39;;;;;;;0.30;0.30;;;14.20;99.90;;;;;;4998738;28;20022;-75
2023/04/24 12:36:06;;;;;;;1.65;0.50;;;14.30;99.90;;;;;;5016483;28;20021;-76
2023/04/24 12:38:39;;;;;;;3.95;0.40;;;14.40;99.90;;;;;;4998524;28;20124;-75
2023/04/24 12:41:11;;;;;;;0.30;0.20;;;14.60;99.90;;;;;;4998643;28;20034;-75
2023/04/24 12:43:37;;;;;;;0.30;0.20;;;14.60;99.90;;;;;;5016445;28;20030;-75
2023/04/24 12:46:03;;;;;;;0.25;0.20;;;14.60;99.90;;;;;;5016618;28;20053;-76